sensor_id;sensor_type;location;lat;lon;timestamp;temperature;humidity
41985;DHT22;28319;48.116;10.818;2022-12-20T00:03:56;1.20;99.90
41985;DHT22;28319;48.116;10.818;2022-12-20T00:09:00;1.30;99.90
41985;DHT22;28319;48.116;10.818;2022-12-20T00:14:03;1.30;99.90
41985;DHT22;28319;48.116;10.818;2022-12-20T00:19:08;1.20;99.90
41985;DHT22;28319;48.116;10.818;2022-12-20T00:24:10;1.20;99.90
41985;DHT22;28319;48.116;10.818;2022-12-20T00:29:12;1.20;99.90
41985;DHT22;28319;48.116;10.818;2022-12-20T00:34:16;1.20;99.90
41985;DHT22;28319;48.116;10.818;2022-12-20T00:39:18;1.20;99.90
41985;DHT22;28319;48.116;10.818;2022-12-20T00:44:20;1.30;99.90
41985;DHT22;28319;48.116;10.818;2022-12-20T00:49:23;1.20;99.90
41985;DHT22;28319;48.116;10.818;2022-12-20T00:54:25;1.30;99.90
41985;DHT22;28319;48.116;10.818;2022-12-20T00:59:31;1.30;99.90
41985;DHT22;28319;48.116;10.818;2022-12-20T01:04:35;1.40;99.90
41985;DHT22;28319;48.116;10.818;2022-12-20T01:09:38;1.50;99.90
41985;DHT22;28319;48.116;10.818;2022-12-20T01:14:40;1.40;99.90
41985;DHT22;28319;48.116;10.818;2022-12-20T01:19:43;1.50;99.90
41985;DHT22;28319;48.116;10.818;2022-12-20T01:24:45;1.60;99.90
41985;DHT22;28319;48.116;10.818;2022-12-20T01:29:47;1.50;99.90
41985;DHT22;28319;48.116;10.818;2022-12-20T01:34:53;1.50;99.90
41985;DHT22;28319;48.116;10.818;2022-12-20T01:39:55;1.50;99.90
41985;DHT22;28319;48.116;10.818;2022-12-20T01:44:58;1.70;99.90
41985;DHT22;28319;48.116;10.818;2022-12-20T01:50:04;1.70;99.90
41985;DHT22;28319;48.116;10.818;2022-12-20T01:55:11;1.70;99.90
41985;DHT22;28319;48.116;10.818;2022-12-20T02:00:14;1.80;99.90
41985;DHT22;28319;48.116;10.818;2022-12-20T02:05:19;1.60;99.90
41985;DHT22;28319;48.116;10.818;2022-12-20T02:10:26;1.60;99.90
41985;DHT22;28319;48.116;10.818;2022-12-20T02:15:37;1.50;99.90
41985;DHT22;28319;48.116;10.818;2022-12-20T02:26:57;1.20;99.90
41985;DHT22;28319;48.116;10.818;2022-12-20T02:32:08;1.20;99.90
41985;DHT22;28319;48.116;10.818;2022-12-20T02:37:13;1.20;99.90
41985;DHT22;28319;48.116;10.818;2022-12-20T02:42:19;1.30;99.90
41985;DHT22;28319;48.116;10.818;2022-12-20T02:47:28;1.30;99.90
41985;DHT22;28319;48.116;10.818;2022-12-20T02:52:32;1.30;99.90
41985;DHT22;28319;48.116;10.818;2022-12-20T02:57:40;1.40;99.90
41985;DHT22;28319;48.116;10.818;2022-12-20T03:02:46;1.40;99.90
41985;DHT22;28319;48.116;10.818;2022-12-20T03:08:06;1.50;99.90
41985;DHT22;28319;48.116;10.818;2022-12-20T03:13:09;1.40;99.90
41985;DHT22;28319;48.116;10.818;2022-12-20T03:18:12;1.40;99.90
41985;DHT22;28319;48.116;10.818;2022-12-20T03:23:14;1.60;99.90
41985;DHT22;28319;48.116;10.818;2022-12-20T03:28:17;1.40;99.90
41985;DHT22;28319;48.116;10.818;2022-12-20T03:33:20;1.40;99.90
41985;DHT22;28319;48.116;10.818;2022-12-20T03:38:22;1.70;99.90
41985;DHT22;28319;48.116;10.818;2022-12-20T03:43:24;1.50;99.90
41985;DHT22;28319;48.116;10.818;2022-12-20T03:48:28;1.60;99.90
41985;DHT22;28319;48.116;10.818;2022-12-20T03:53:30;1.60;99.90
41985;DHT22;28319;48.116;10.818;2022-12-20T03:58:32;1.60;99.90
41985;DHT22;28319;48.116;10.818;2022-12-20T04:03:36;1.50;99.90
41985;DHT22;28319;48.116;10.818;2022-12-20T04:08:38;1.50;99.90
41985;DHT22;28319;48.116;10.818;2022-12-20T04:13:40;1.50;99.90
41985;DHT22;28319;48.116;10.818;2022-12-20T04:18:43;1.50;99.90
41985;DHT22;28319;48.116;10.818;2022-12-20T04:23:45;1.50;99.90
41985;DHT22;28319;48.116;10.818;2022-12-20T04:28:47;1.50;99.90
41985;DHT22;28319;48.116;10.818;2022-12-20T04:33:51;1.40;99.90
41985;DHT22;28319;48.116;10.818;2022-12-20T04:38:53;1.40;99.90
41985;DHT22;28319;48.116;10.818;2022-12-20T04:43:57;1.40;99.90
41985;DHT22;28319;48.116;10.818;2022-12-20T04:49:00;1.50;99.90
41985;DHT22;28319;48.116;10.818;2022-12-20T04:54:03;1.50;99.90
41985;DHT22;28319;48.116;10.818;2022-12-20T04:59:05;1.40;99.90
41985;DHT22;28319;48.116;10.818;2022-12-20T05:04:08;1.40;99.90
41985;DHT22;28319;48.116;10.818;2022-12-20T05:09:10;1.40;99.90
41985;DHT22;28319;48.116;10.818;2022-12-20T05:14:12;1.50;99.90
41985;DHT22;28319;48.116;10.818;2022-12-20T05:19:16;1.50;99.90
41985;DHT22;28319;48.116;10.818;2022-12-20T05:24:18;1.50;99.90
41985;DHT22;28319;48.116;10.818;2022-12-20T05:29:38;1.60;99.90
41985;DHT22;28319;48.116;10.818;2022-12-20T05:34:41;1.50;99.90
41985;DHT22;28319;48.116;10.818;2022-12-20T05:39:43;1.60;99.90
41985;DHT22;28319;48.116;10.818;2022-12-20T05:44:45;1.90;99.90
41985;DHT22;28319;48.116;10.818;2022-12-20T05:49:49;1.80;99.90
41985;DHT22;28319;48.116;10.818;2022-12-20T05:54:51;1.80;99.90
41985;DHT22;28319;48.116;10.818;2022-12-20T05:59:53;1.80;99.90
41985;DHT22;28319;48.116;10.818;2022-12-20T06:04:57;1.70;99.90
41985;DHT22;28319;48.116;10.818;2022-12-20T06:09:59;1.70;99.90
41985;DHT22;28319;48.116;10.818;2022-12-20T06:15:01;1.60;99.90
41985;DHT22;28319;48.116;10.818;2022-12-20T06:20:06;1.60;99.90
41985;DHT22;28319;48.116;10.818;2022-12-20T06:25:08;1.70;99.90
41985;DHT22;28319;48.116;10.818;2022-12-20T06:30:12;1.60;99.90
41985;DHT22;28319;48.116;10.818;2022-12-20T06:35:16;1.60;99.90
41985;DHT22;28319;48.116;10.818;2022-12-20T06:40:18;1.60;99.90
41985;DHT22;28319;48.116;10.818;2022-12-20T06:45:20;1.60;99.90
41985;DHT22;28319;48.116;10.818;2022-12-20T06:50:24;1.70;99.90
41985;DHT22;28319;48.116;10.818;2022-12-20T06:55:26;1.60;99.90
41985;DHT22;28319;48.116;10.818;2022-12-20T07:00:28;1.60;99.90
41985;DHT22;28319;48.116;10.818;2022-12-20T07:05:32;1.50;99.90
41985;DHT22;28319;48.116;10.818;2022-12-20T07:10:35;1.50;99.90
41985;DHT22;28319;48.116;10.818;2022-12-20T07:15:37;1.60;99.90
41985;DHT22;28319;48.116;10.818;2022-12-20T07:20:40;1.60;99.90
41985;DHT22;28319;48.116;10.818;2022-12-20T07:25:43;1.70;99.90
41985;DHT22;28319;48.116;10.818;2022-12-20T07:30:45;1.70;99.90
41985;DHT22;28319;48.116;10.818;2022-12-20T07:35:49;1.70;99.90
41985;DHT22;28319;48.116;10.818;2022-12-20T07:40:51;1.70;99.90
41985;DHT22;28319;48.116;10.818;2022-12-20T07:45:54;1.80;99.90
41985;DHT22;28319;48.116;10.818;2022-12-20T07:51:00;1.80;99.90
41985;DHT22;28319;48.116;10.818;2022-12-20T07:56:04;1.90;99.90
41985;DHT22;28319;48.116;10.818;2022-12-20T08:01:08;1.90;99.90
41985;DHT22;28319;48.116;10.818;2022-12-20T08:06:14;1.80;99.90
41985;DHT22;28319;48.116;10.818;2022-12-20T08:11:17;1.90;99.90
41985;DHT22;28319;48.116;10.818;2022-12-20T08:16:20;1.90;99.90
41985;DHT22;28319;48.116;10.818;2022-12-20T08:21:23;1.90;99.90
41985;DHT22;28319;48.116;10.818;2022-12-20T08:26:26;2.00;99.90
41985;DHT22;28319;48.116;10.818;2022-12-20T08:31:28;2.00;99.90
41985;DHT22;28319;48.116;10.818;2022-12-20T08:36:31;2.10;99.90
41985;DHT22;28319;48.116;10.818;2022-12-20T08:41:34;2.20;99.90
41985;DHT22;28319;48.116;10.818;2022-12-20T08:46:37;2.20;99.90
41985;DHT22;28319;48.116;10.818;2022-12-20T08:51:41;2.30;99.90
41985;DHT22;28319;48.116;10.818;2022-12-20T08:56:43;2.30;99.90
41985;DHT22;28319;48.116;10.818;2022-12-20T09:01:45;2.30;99.90
41985;DHT22;28319;48.116;10.818;2022-12-20T09:06:48;2.30;99.90
41985;DHT22;28319;48.116;10.818;2022-12-20T09:11:50;2.30;99.90
41985;DHT22;28319;48.116;10.818;2022-12-20T09:16:53;2.30;99.90
41985;DHT22;28319;48.116;10.818;2022-12-20T09:21:56;2.30;99.90
41985;DHT22;28319;48.116;10.818;2022-12-20T09:26:58;2.40;99.90
41985;DHT22;28319;48.116;10.818;2022-12-20T09:32:00;2.60;99.90
41985;DHT22;28319;48.116;10.818;2022-12-20T09:37:03;2.70;99.90
41985;DHT22;28319;48.116;10.818;2022-12-20T09:42:07;2.80;99.90
41985;DHT22;28319;48.116;10.818;2022-12-20T09:47:14;2.90;99.90
41985;DHT22;28319;48.116;10.818;2022-12-20T09:52:36;2.90;99.90
41985;DHT22;28319;48.116;10.818;2022-12-20T09:57:59;2.90;99.90
41985;DHT22;28319;48.116;10.818;2022-12-20T10:03:07;3.00;99.90
41985;DHT22;28319;48.116;10.818;2022-12-20T10:08:21;3.00;99.90
41985;DHT22;28319;48.116;10.818;2022-12-20T10:13:49;4.30;99.90
41985;DHT22;28319;48.116;10.818;2022-12-20T10:21:07;3.30;99.90
41985;DHT22;28319;48.116;10.818;2022-12-20T10:32:27;3.60;99.90
41985;DHT22;28319;48.116;10.818;2022-12-20T10:37:28;3.70;99.90
41985;DHT22;28319;48.116;10.818;2022-12-20T10:41:45;3.70;99.90
41985;DHT22;28319;48.116;10.818;2022-12-20T10:52:27;3.90;99.90
41985;DHT22;28319;48.116;10.818;2022-12-20T10:58:00;3.90;99.90
41985;DHT22;28319;48.116;10.818;2022-12-20T11:03:57;4.30;99.90
41985;DHT22;28319;48.116;10.818;2022-12-20T11:39:14;4.80;99.90
41985;DHT22;28319;48.116;10.818;2022-12-20T11:50:53;4.90;99.90
41985;DHT22;28319;48.116;10.818;2022-12-20T14:17:51;4.00;99.90
41985;DHT22;28319;48.116;10.818;2022-12-20T14:22:56;3.70;99.90
41985;DHT22;28319;48.116;10.818;2022-12-20T14:27:59;3.70;99.90
41985;DHT22;28319;48.116;10.818;2022-12-20T14:33:02;3.80;99.90
41985;DHT22;28319;48.116;10.818;2022-12-20T14:38:04;3.80;99.90
41985;DHT22;28319;48.116;10.818;2022-12-20T14:43:13;3.90;99.90
41985;DHT22;28319;48.116;10.818;2022-12-20T14:48:17;3.80;99.90
41985;DHT22;28319;48.116;10.818;2022-12-20T14:53:23;3.80;99.90
41985;DHT22;28319;48.116;10.818;2022-12-20T14:58:29;3.70;99.90
41985;DHT22;28319;48.116;10.818;2022-12-20T15:03:33;3.60;99.90
41985;DHT22;28319;48.116;10.818;2022-12-20T15:08:37;3.60;99.90
41985;DHT22;28319;48.116;10.818;2022-12-20T15:13:41;3.50;99.90
41985;DHT22;28319;48.116;10.818;2022-12-20T15:18:45;3.50;99.90
41985;DHT22;28319;48.116;10.818;2022-12-20T15:23:49;3.50;99.90
41985;DHT22;28319;48.116;10.818;2022-12-20T15:28:52;3.50;99.90
41985;DHT22;28319;48.116;10.818;2022-12-20T15:33:56;3.40;99.90
41985;DHT22;28319;48.116;10.818;2022-12-20T15:38:58;3.30;99.90
41985;DHT22;28319;48.116;10.818;2022-12-20T15:44:04;3.30;99.90
41985;DHT22;28319;48.116;10.818;2022-12-20T15:49:12;3.20;99.90
41985;DHT22;28319;48.116;10.818;2022-12-20T15:54:21;3.20;99.90
41985;DHT22;28319;48.116;10.818;2022-12-20T15:59:23;3.10;99.90
41985;DHT22;28319;48.116;10.818;2022-12-20T16:04:27;3.10;99.90
41985;DHT22;28319;48.116;10.818;2022-12-20T16:09:29;3.10;99.90
41985;DHT22;28319;48.116;10.818;2022-12-20T16:14:31;3.10;99.90
41985;DHT22;28319;48.116;10.818;2022-12-20T16:19:34;3.00;99.90
41985;DHT22;28319;48.116;10.818;2022-12-20T16:24:37;3.00;99.90
41985;DHT22;28319;48.116;10.818;2022-12-20T16:29:39;3.10;99.90
41985;DHT22;28319;48.116;10.818;2022-12-20T16:34:43;3.00;99.90
41985;DHT22;28319;48.116;10.818;2022-12-20T16:39:45;3.00;99.90
41985;DHT22;28319;48.116;10.818;2022-12-20T16:44:50;3.00;99.90
41985;DHT22;28319;48.116;10.818;2022-12-20T16:49:53;2.90;99.90
41985;DHT22;28319;48.116;10.818;2022-12-20T16:54:55;2.80;99.90
41985;DHT22;28319;48.116;10.818;2022-12-20T16:59:57;3.10;99.90
41985;DHT22;28319;48.116;10.818;2022-12-20T17:05:01;2.80;99.90
41985;DHT22;28319;48.116;10.818;2022-12-20T17:10:04;2.90;99.90
41985;DHT22;28319;48.116;10.818;2022-12-20T17:15:21;2.90;99.90
41985;DHT22;28319;48.116;10.818;2022-12-20T17:20:24;2.90;99.90
41985;DHT22;28319;48.116;10.818;2022-12-20T17:25:28;2.90;99.90
41985;DHT22;28319;48.116;10.818;2022-12-20T17:30:30;3.00;99.90
41985;DHT22;28319;48.116;10.818;2022-12-20T17:35:34;2.90;99.90
41985;DHT22;28319;48.116;10.818;2022-12-20T17:40:36;3.00;99.90
41985;DHT22;28319;48.116;10.818;2022-12-20T17:45:38;3.00;99.90
41985;DHT22;28319;48.116;10.818;2022-12-20T17:50:42;3.00;99.90
41985;DHT22;28319;48.116;10.818;2022-12-20T17:55:44;3.10;99.90
41985;DHT22;28319;48.116;10.818;2022-12-20T18:00:46;3.00;99.90
41985;DHT22;28319;48.116;10.818;2022-12-20T18:05:50;2.90;99.90
41985;DHT22;28319;48.116;10.818;2022-12-20T18:10:51;2.80;99.90
41985;DHT22;28319;48.116;10.818;2022-12-20T18:15:54;2.80;99.90
41985;DHT22;28319;48.116;10.818;2022-12-20T18:21:02;2.90;99.90
41985;DHT22;28319;48.116;10.818;2022-12-20T18:26:08;3.00;99.90
41985;DHT22;28319;48.116;10.818;2022-12-20T18:31:14;2.90;99.90
41985;DHT22;28319;48.116;10.818;2022-12-20T18:36:19;2.80;99.90
41985;DHT22;28319;48.116;10.818;2022-12-20T18:41:23;2.80;99.90
41985;DHT22;28319;48.116;10.818;2022-12-20T18:46:26;2.80;99.90
41985;DHT22;28319;48.116;10.818;2022-12-20T18:51:31;2.80;99.90
41985;DHT22;28319;48.116;10.818;2022-12-20T18:56:37;2.70;99.90
41985;DHT22;28319;48.116;10.818;2022-12-20T19:01:40;2.80;99.90
41985;DHT22;28319;48.116;10.818;2022-12-20T19:06:44;2.80;99.90
41985;DHT22;28319;48.116;10.818;2022-12-20T19:11:46;2.80;99.90
41985;DHT22;28319;48.116;10.818;2022-12-20T19:16:49;2.80;99.90
41985;DHT22;28319;48.116;10.818;2022-12-20T19:21:53;2.80;99.90
41985;DHT22;28319;48.116;10.818;2022-12-20T19:26:55;2.90;99.90
41985;DHT22;28319;48.116;10.818;2022-12-20T19:31:57;3.00;99.90
41985;DHT22;28319;48.116;10.818;2022-12-20T19:37:01;3.00;99.90
41985;DHT22;28319;48.116;10.818;2022-12-20T19:42:03;3.10;99.90
41985;DHT22;28319;48.116;10.818;2022-12-20T19:47:05;3.10;99.90
41985;DHT22;28319;48.116;10.818;2022-12-20T19:52:08;3.20;99.90
41985;DHT22;28319;48.116;10.818;2022-12-20T19:57:10;3.20;99.90
41985;DHT22;28319;48.116;10.818;2022-12-20T20:02:13;3.30;99.90
41985;DHT22;28319;48.116;10.818;2022-12-20T20:07:17;3.30;99.90
41985;DHT22;28319;48.116;10.818;2022-12-20T20:12:19;3.20;99.90
41985;DHT22;28319;48.116;10.818;2022-12-20T20:17:21;3.10;99.90
41985;DHT22;28319;48.116;10.818;2022-12-20T20:22:25;3.10;99.90
41985;DHT22;28319;48.116;10.818;2022-12-20T20:27:27;3.00;99.90
41985;DHT22;28319;48.116;10.818;2022-12-20T20:32:30;3.00;99.90
41985;DHT22;28319;48.116;10.818;2022-12-20T20:37:33;3.00;99.90
41985;DHT22;28319;48.116;10.818;2022-12-20T20:42:36;3.10;99.90
41985;DHT22;28319;48.116;10.818;2022-12-20T20:47:38;3.10;99.90
41985;DHT22;28319;48.116;10.818;2022-12-20T20:52:41;3.10;99.90
41985;DHT22;28319;48.116;10.818;2022-12-20T20:57:43;3.10;99.90
41985;DHT22;28319;48.116;10.818;2022-12-20T21:02:45;3.00;99.90
41985;DHT22;28319;48.116;10.818;2022-12-20T21:07:49;3.00;99.90
41985;DHT22;28319;48.116;10.818;2022-12-20T21:12:52;3.10;99.90
41985;DHT22;28319;48.116;10.818;2022-12-20T21:17:54;3.10;99.90
41985;DHT22;28319;48.116;10.818;2022-12-20T21:22:57;3.10;99.90
41985;DHT22;28319;48.116;10.818;2022-12-20T21:28:01;3.20;99.90
41985;DHT22;28319;48.116;10.818;2022-12-20T21:33:03;3.20;99.90
41985;DHT22;28319;48.116;10.818;2022-12-20T21:38:06;3.10;99.90
41985;DHT22;28319;48.116;10.818;2022-12-20T21:43:08;3.00;99.90
41985;DHT22;28319;48.116;10.818;2022-12-20T21:48:10;3.00;99.90
41985;DHT22;28319;48.116;10.818;2022-12-20T21:53:15;3.30;99.90
41985;DHT22;28319;48.116;10.818;2022-12-20T21:58:21;3.50;99.90
41985;DHT22;28319;48.116;10.818;2022-12-20T22:03:24;3.80;99.90
41985;DHT22;28319;48.116;10.818;2022-12-20T22:08:39;4.40;99.90
41985;DHT22;28319;48.116;10.818;2022-12-20T22:13:44;3.90;99.90
41985;DHT22;28319;48.116;10.818;2022-12-20T22:18:54;3.90;99.90
41985;DHT22;28319;48.116;10.818;2022-12-20T22:23:58;4.00;99.90
41985;DHT22;28319;48.116;10.818;2022-12-20T22:29:03;4.10;99.90
41985;DHT22;28319;48.116;10.818;2022-12-20T22:34:09;4.00;99.90
41985;DHT22;28319;48.116;10.818;2022-12-20T22:39:13;4.10;99.90
41985;DHT22;28319;48.116;10.818;2022-12-20T22:44:15;4.00;99.90
41985;DHT22;28319;48.116;10.818;2022-12-20T22:49:17;3.80;99.90
41985;DHT22;28319;48.116;10.818;2022-12-20T22:54:22;4.00;99.90
41985;DHT22;28319;48.116;10.818;2022-12-20T22:59:24;3.70;99.90
41985;DHT22;28319;48.116;10.818;2022-12-20T23:04:26;3.60;99.90
41985;DHT22;28319;48.116;10.818;2022-12-20T23:09:34;3.50;99.90
41985;DHT22;28319;48.116;10.818;2022-12-20T23:14:36;3.60;99.90
41985;DHT22;28319;48.116;10.818;2022-12-20T23:19:52;3.50;99.90
41985;DHT22;28319;48.116;10.818;2022-12-20T23:25:15;3.50;99.90
41985;DHT22;28319;48.116;10.818;2022-12-20T23:30:20;3.50;99.90
41985;DHT22;28319;48.116;10.818;2022-12-20T23:35:22;3.40;99.90
41985;DHT22;28319;48.116;10.818;2022-12-20T23:40:26;3.60;99.90
41985;DHT22;28319;48.116;10.818;2022-12-20T23:45:28;3.90;99.90
41985;DHT22;28319;48.116;10.818;2022-12-20T23:50:31;3.50;99.90
41985;DHT22;28319;48.116;10.818;2022-12-20T23:55:34;3.60;99.90
